Time;durP1;ratioP1;P1;durP2;ratioP2;P2;SDS_P1;SDS_P2;PMS_P1;PMS_P2;Temp;Humidity;BMP_temperature;BMP_pressure;BME280_temperature;BME280_humidity;BME280_pressure;Samples;Min_cycle;Max_cycle;Signal;HPM_P1;HPM_P2
2022/05/10 00:02:03;;;;;;;11.18;4.22;;;;;;;;;;10368599;28;20033;-57
2022/05/10 00:07:04;;;;;;;12.20;4.35;;;;;;;;;;10368413;28;20046;-55
2022/05/10 00:12:05;;;;;;;5.32;3.90;;;;;;;;;;10368268;28;20113;-56
2022/05/10 00:17:06;;;;;;;8.63;3.97;;;;;;;;;;10368264;28;20448;-57
2022/05/10 00:22:07;;;;;;;8.80;4.10;;;;;;;;;;10366839;28;20030;-57
2022/05/10 00:27:07;;;;;;;4.57;3.80;;;;;;;;;;10367787;28;20026;-57
2022/05/10 00:32:09;;;;;;;7.40;4.35;;;;;;;;;;10367780;28;20482;-57
2022/05/10 00:37:11;;;;;;;8.80;4.47;;;;;;;;;;10366483;28;20389;-57
2022/05/10 00:42:34;;;;;;;5.78;3.97;;;;;;;;;;10367491;28;20026;-58
2022/05/10 00:47:44;;;;;;;6.05;3.38;;;;;;;;;;10366537;28;20080;-58
2022/05/10 00:53:09;;;;;;;5.60;3.60;;;;;;;;;;10371016;28;20017;-58
2022/05/10 00:58:44;;;;;;;9.63;4.30;;;;;;;;;;10374705;28;20034;-58
2022/05/10 01:04:13;;;;;;;5.70;4.25;;;;;;;;;;10374304;28;20040;-58
2022/05/10 01:09:46;;;;;;;8.68;3.90;;;;;;;;;;10375716;28;20037;-58
2022/05/10 01:14:54;;;;;;;5.05;3.83;;;;;;;;;;10359927;28;20033;-58
2022/05/10 01:19:55;;;;;;;4.78;3.55;;;;;;;;;;10373692;28;20046;-58
2022/05/10 01:24:58;;;;;;;4.10;3.63;;;;;;;;;;10374868;28;20034;-57
2022/05/10 01:30:16;;;;;;;9.05;3.42;;;;;;;;;;10374825;28;20037;-57
2022/05/10 01:35:24;;;;;;;8.02;3.67;;;;;;;;;;10373040;28;20041;-56
2022/05/10 01:40:35;;;;;;;7.72;3.42;;;;;;;;;;10372930;28;20462;-57
2022/05/10 01:45:43;;;;;;;5.00;3.72;;;;;;;;;;10372521;28;20093;-56
2022/05/10 01:51:21;;;;;;;6.13;3.97;;;;;;;;;;10373963;28;20034;-55
2022/05/10 01:56:25;;;;;;;7.28;3.60;;;;;;;;;;10371202;28;20501;-56
2022/05/10 02:01:34;;;;;;;5.63;3.63;;;;;;;;;;10372182;28;20034;-57
2022/05/10 02:06:54;;;;;;;4.97;3.17;;;;;;;;;;10372077;28;20022;-56
2022/05/10 02:12:07;;;;;;;5.10;3.30;;;;;;;;;;10372804;28;20049;-57
2022/05/10 02:17:14;;;;;;;6.30;3.90;;;;;;;;;;10357369;28;20287;-57
2022/05/10 02:23:05;;;;;;;6.57;3.42;;;;;;;;;;10331737;28;20116;-56
2022/05/10 02:28:19;;;;;;;9.57;3.75;;;;;;;;;;10350306;28;20061;-56
2022/05/10 02:33:21;;;;;;;6.32;3.75;;;;;;;;;;10370718;28;20038;-55
2022/05/10 02:38:33;;;;;;;5.07;3.50;;;;;;;;;;10356850;28;20111;-56
2022/05/10 02:43:52;;;;;;;4.93;3.50;;;;;;;;;;10367142;28;20026;-56
2022/05/10 02:48:53;;;;;;;3.63;3.15;;;;;;;;;;10370880;28;20279;-57
2022/05/10 02:53:53;;;;;;;5.55;3.45;;;;;;;;;;10364113;28;20252;-56
2022/05/10 02:59:07;;;;;;;9.82;4.60;;;;;;;;;;10370637;28;20034;-56
2022/05/10 03:04:10;;;;;;;4.30;3.45;;;;;;;;;;10370768;28;20117;-57
2022/05/10 03:09:11;;;;;;;3.97;3.20;;;;;;;;;;10370603;28;20030;-56
2022/05/10 03:14:12;;;;;;;5.35;3.42;;;;;;;;;;10369868;28;20466;-57
2022/05/10 03:19:12;;;;;;;4.07;3.67;;;;;;;;;;10369492;28;20657;-57
2022/05/10 03:24:13;;;;;;;7.03;3.80;;;;;;;;;;10369592;28;20033;-57
2022/05/10 03:29:15;;;;;;;4.43;3.30;;;;;;;;;;10390277;28;20029;-57
2022/05/10 03:39:35;;;;;;;8.18;3.30;;;;;;;;;;10410424;28;20108;-56
2022/05/10 03:44:36;;;;;;;5.05;3.70;;;;;;;;;;10409887;28;20033;-56
2022/05/10 03:49:37;;;;;;;7.18;2.88;;;;;;;;;;10409967;28;20104;-56
2022/05/10 03:54:37;;;;;;;8.85;3.70;;;;;;;;;;10409693;28;20037;-57
2022/05/10 03:59:41;;;;;;;6.75;3.28;;;;;;;;;;10409507;28;20485;-57
2022/05/10 04:04:42;;;;;;;3.42;3.00;;;;;;;;;;10409181;28;20053;-57
2022/05/10 04:09:43;;;;;;;3.42;3.13;;;;;;;;;;10409190;28;20049;-57
2022/05/10 04:14:44;;;;;;;4.03;3.10;;;;;;;;;;10408876;28;20044;-57
2022/05/10 04:19:44;;;;;;;5.25;3.42;;;;;;;;;;10408771;28;20061;-57
2022/05/10 04:24:45;;;;;;;5.75;3.40;;;;;;;;;;10408867;28;20068;-57
2022/05/10 04:29:46;;;;;;;3.38;2.90;;;;;;;;;;10407837;28;20032;-57
2022/05/10 04:34:46;;;;;;;6.22;3.40;;;;;;;;;;10408470;28;20033;-57
2022/05/10 04:45:27;;;;;;;6.78;3.35;;;;;;;;;;10320589;28;20486;-55
2022/05/10 04:50:28;;;;;;;4.35;3.28;;;;;;;;;;10289569;28;20039;-56
2022/05/10 04:55:28;;;;;;;4.22;2.70;;;;;;;;;;10278867;28;20069;-57
2022/05/10 05:00:30;;;;;;;5.65;3.50;;;;;;;;;;10278304;28;20042;-56
2022/05/10 05:05:30;;;;;;;3.42;3.10;;;;;;;;;;10279772;28;20078;-56
2022/05/10 05:10:31;;;;;;;5.45;3.63;;;;;;;;;;10278420;28;20065;-57
2022/05/10 05:15:32;;;;;;;5.32;3.47;;;;;;;;;;10331103;28;20400;-58
2022/05/10 05:20:32;;;;;;;4.05;3.10;;;;;;;;;;10374474;28;20053;-57
2022/05/10 05:25:33;;;;;;;3.45;2.85;;;;;;;;;;10365085;28;20021;-57
2022/05/10 05:30:34;;;;;;;4.15;3.13;;;;;;;;;;10359347;28;20029;-57
2022/05/10 05:35:35;;;;;;;5.07;3.42;;;;;;;;;;10363457;28;20030;-57
2022/05/10 05:40:37;;;;;;;7.10;3.40;;;;;;;;;;10367531;28;20029;-57
2022/05/10 05:45:38;;;;;;;7.85;2.97;;;;;;;;;;10361076;28;20041;-57
2022/05/10 05:50:38;;;;;;;3.78;2.75;;;;;;;;;;10373651;28;20030;-58
2022/05/10 05:55:41;;;;;;;3.50;3.03;;;;;;;;;;10355846;28;20054;-58
2022/05/10 06:00:42;;;;;;;4.28;3.15;;;;;;;;;;10332353;28;20113;-57
2022/05/10 06:05:43;;;;;;;3.40;3.10;;;;;;;;;;10371424;28;20036;-58
2022/05/10 06:10:44;;;;;;;3.00;2.70;;;;;;;;;;10373157;28;20025;-57
2022/05/10 06:15:44;;;;;;;3.03;2.70;;;;;;;;;;10372518;28;20045;-57
2022/05/10 06:20:45;;;;;;;4.20;3.05;;;;;;;;;;10372833;28;20053;-58
2022/05/10 06:25:46;;;;;;;3.40;2.95;;;;;;;;;;10371923;28;20496;-57
2022/05/10 06:30:47;;;;;;;4.65;2.92;;;;;;;;;;10371944;28;20169;-58
2022/05/10 06:35:48;;;;;;;6.00;2.95;;;;;;;;;;10371734;28;20366;-57
2022/05/10 06:40:48;;;;;;;3.40;2.83;;;;;;;;;;10371776;28;20026;-58
2022/05/10 06:45:50;;;;;;;4.35;2.78;;;;;;;;;;10371500;28;20038;-58
2022/05/10 06:50:51;;;;;;;4.22;2.75;;;;;;;;;;10370605;28;20029;-58
2022/05/10 06:55:51;;;;;;;3.42;2.70;;;;;;;;;;10370940;28;20104;-58
2022/05/10 07:00:52;;;;;;;3.97;2.80;;;;;;;;;;10370672;28;20030;-58
2022/05/10 07:05:53;;;;;;;4.25;2.75;;;;;;;;;;10370493;28;20108;-58
2022/05/10 07:10:54;;;;;;;4.35;3.17;;;;;;;;;;10370801;28;20034;-58
2022/05/10 07:15:54;;;;;;;2.90;2.60;;;;;;;;;;10370068;28;20141;-58
2022/05/10 07:20:55;;;;;;;3.35;2.72;;;;;;;;;;10370040;28;20158;-58
2022/05/10 07:25:57;;;;;;;4.85;3.00;;;;;;;;;;10369989;28;20088;-57
2022/05/10 07:30:58;;;;;;;4.63;2.60;;;;;;;;;;10369644;28;20429;-58
2022/05/10 07:41:22;;;;;;;3.30;2.70;;;;;;;;;;10369714;28;20025;-58
2022/05/10 07:46:24;;;;;;;3.65;2.63;;;;;;;;;;10368894;28;20080;-58
2022/05/10 07:51:25;;;;;;;3.55;3.10;;;;;;;;;;10369201;28;20076;-58
2022/05/10 07:56:25;;;;;;;5.05;3.00;;;;;;;;;;10368737;28;20046;-58
2022/05/10 08:01:27;;;;;;;3.00;2.80;;;;;;;;;;10368367;28;20497;-57
2022/05/10 08:06:27;;;;;;;6.22;2.90;;;;;;;;;;10368321;28;20033;-58
2022/05/10 08:11:28;;;;;;;5.60;2.75;;;;;;;;;;10367295;28;20026;-57
2022/05/10 08:16:32;;;;;;;4.32;2.53;;;;;;;;;;10366664;28;20038;-57
2022/05/10 08:21:32;;;;;;;3.65;2.72;;;;;;;;;;10367798;28;20266;-57
2022/05/10 08:26:33;;;;;;;3.33;2.83;;;;;;;;;;10367946;28;20389;-58
2022/05/10 08:31:34;;;;;;;3.83;2.72;;;;;;;;;;10368065;28;20076;-57
2022/05/10 08:36:34;;;;;;;9.27;2.85;;;;;;;;;;10367331;28;20030;-57
2022/05/10 08:42:01;;;;;;;7.75;3.20;;;;;;;;;;10365738;28;20022;-51
2022/05/10 08:47:06;;;;;;;9.00;4.57;;;;;;;;;;10364987;28;20034;-51
2022/05/10 08:52:07;;;;;;;11.73;4.25;;;;;;;;;;10366023;28;20124;-50
2022/05/10 08:57:20;;;;;;;9.02;4.45;;;;;;;;;;10361389;28;20041;-56
2022/05/10 09:02:47;;;;;;;8.50;4.72;;;;;;;;;;10344928;28;20125;-52
2022/05/10 09:08:22;;;;;;;8.93;4.40;;;;;;;;;;10384476;28;20064;-49
2022/05/10 09:13:23;;;;;;;7.07;4.55;;;;;;;;;;10369692;28;20033;-49
2022/05/10 09:18:36;;;;;;;10.27;4.40;;;;;;;;;;10372822;28;20100;-51
2022/05/10 09:24:15;;;;;;;7.05;4.40;;;;;;;;;;10363489;28;20076;-49
2022/05/10 09:29:44;;;;;;;12.55;5.82;;;;;;;;;;10344489;28;20030;-49
2022/05/10 09:35:07;;;;;;;7.53;4.40;;;;;;;;;;10384378;28;20030;-56
2022/05/10 09:40:32;;;;;;;9.55;4.00;;;;;;;;;;10372652;28;20029;-55
2022/05/10 09:45:33;;;;;;;8.57;4.70;;;;;;;;;;10390177;28;20227;-53
2022/05/10 09:50:42;;;;;;;6.18;4.57;;;;;;;;;;10360659;28;20022;-52
2022/05/10 09:56:04;;;;;;;9.05;4.10;;;;;;;;;;10370040;28;20556;-52
2022/05/10 10:01:10;;;;;;;7.20;4.50;;;;;;;;;;10370607;28;20037;-51
2022/05/10 10:06:24;;;;;;;7.63;4.07;;;;;;;;;;10380918;28;20196;-51
2022/05/10 10:11:30;;;;;;;9.75;4.28;;;;;;;;;;10347801;28;20033;-51
2022/05/10 10:16:54;;;;;;;8.68;4.10;;;;;;;;;;10348622;28;20087;-53
2022/05/10 10:22:33;;;;;;;5.85;3.70;;;;;;;;;;10405537;28;20041;-54
2022/05/10 10:27:41;;;;;;;5.57;3.63;;;;;;;;;;10342164;28;20072;-49
2022/05/10 10:32:46;;;;;;;;;;;;;;;;;;10408675;28;20029;-50
2022/05/10 10:38:20;;;;;;;8.13;3.63;;;;;;;;;;10392876;28;19916;-48
2022/05/10 10:43:58;;;;;;;9.20;3.50;;;;;;;;;;10371372;28;20038;-50
2022/05/10 10:49:08;;;;;;;12.30;3.60;;;;;;;;;;10370911;28;20112;-51
2022/05/10 10:54:23;;;;;;;6.60;3.95;;;;;;;;;;10366511;28;20574;-48
2022/05/10 10:59:26;;;;;;;6.10;4.00;;;;;;;;;;10368615;28;20482;-50
2022/05/10 11:05:07;;;;;;;5.13;3.47;;;;;;;;;;10370398;28;20040;-49
2022/05/10 11:10:37;;;;;;;5.10;3.53;;;;;;;;;;10369208;28;20033;-49
2022/05/10 11:16:20;;;;;;;6.18;3.72;;;;;;;;;;10358006;28;20037;-49
2022/05/10 11:21:33;;;;;;;9.20;3.88;;;;;;;;;;10346046;28;20092;-48
2022/05/10 11:26:34;;;;;;;7.93;4.38;;;;;;;;;;10329525;28;20121;-48
2022/05/10 11:31:43;;;;;;;5.45;4.07;;;;;;;;;;10354203;28;20050;-53
2022/05/10 11:36:50;;;;;;;6.32;4.25;;;;;;;;;;10363485;28;20100;-50
2022/05/10 11:42:00;;;;;;;5.63;3.85;;;;;;;;;;10341574;28;20077;-52
2022/05/10 11:47:13;;;;;;;6.78;4.28;;;;;;;;;;10329800;28;20205;-50
2022/05/10 11:52:48;;;;;;;7.50;4.05;;;;;;;;;;10344591;28;20393;-55
2022/05/10 11:57:56;;;;;;;7.68;4.65;;;;;;;;;;10350741;28;20025;-51
2022/05/10 12:03:02;;;;;;;9.80;4.10;;;;;;;;;;10345849;28;20046;-53
2022/05/10 12:08:20;;;;;;;6.72;4.10;;;;;;;;;;10338190;28;20359;-57
2022/05/10 12:24:30;;;;;;;11.48;4.70;;;;;;;;;;10379882;28;19917;-56
2022/05/10 12:29:40;;;;;;;7.65;4.40;;;;;;;;;;10351295;28;20041;-55
2022/05/10 12:34:58;;;;;;;7.63;4.75;;;;;;;;;;10329839;28;20061;-48
2022/05/10 12:40:08;;;;;;;;;;;;;;;;;;10327040;28;20041;-50
2022/05/10 12:46:02;;;;;;;6.30;4.53;;;;;;;;;;10336971;28;19918;-56
2022/05/10 12:51:43;;;;;;;10.77;4.57;;;;;;;;;;10369259;28;20467;-49
2022/05/10 12:56:49;;;;;;;7.55;4.47;;;;;;;;;;10341604;28;20045;-47
2022/05/10 13:01:52;;;;;;;10.48;4.60;;;;;;;;;;10346907;28;20547;-48
2022/05/10 13:07:24;;;;;;;7.63;5.03;;;;;;;;;;10347825;28;20038;-51
2022/05/10 13:12:45;;;;;;;10.90;4.82;;;;;;;;;;10342766;28;20026;-49
2022/05/10 13:17:59;;;;;;;13.07;4.88;;;;;;;;;;10338157;28;20043;-50
2022/05/10 13:23:04;;;;;;;6.72;4.90;;;;;;;;;;10340312;28;20046;-50
2022/05/10 13:28:24;;;;;;;8.57;4.80;;;;;;;;;;10353528;28;20034;-55
2022/05/10 13:33:33;;;;;;;20.15;5.65;;;;;;;;;;10361567;28;20045;-58
2022/05/10 13:38:51;;;;;;;17.55;5.45;;;;;;;;;;10348721;28;20157;-58
2022/05/10 13:43:56;;;;;;;8.30;5.40;;;;;;;;;;10345280;28;20054;-58
2022/05/10 13:49:06;;;;;;;14.45;4.95;;;;;;;;;;10360688;28;21073;-58
2022/05/10 13:54:32;;;;;;;11.00;4.40;;;;;;;;;;10351970;28;20030;-55
2022/05/10 13:59:33;;;;;;;14.93;5.43;;;;;;;;;;10364217;28;20406;-56
2022/05/10 14:04:45;;;;;;;14.98;4.85;;;;;;;;;;10372014;28;20030;-58
2022/05/10 14:09:49;;;;;;;6.68;5.05;;;;;;;;;;10333820;28;20065;-58
2022/05/10 14:14:50;;;;;;;6.45;4.70;;;;;;;;;;10330930;28;20071;-57
2022/05/10 14:19:52;;;;;;;8.27;4.90;;;;;;;;;;10354962;28;20046;-58
2022/05/10 14:24:55;;;;;;;14.57;5.45;;;;;;;;;;10368841;28;20045;-58
2022/05/10 14:29:58;;;;;;;7.18;5.07;;;;;;;;;;10364653;28;20038;-56
2022/05/10 14:35:07;;;;;;;12.43;4.95;;;;;;;;;;10359378;28;20505;-57
2022/05/10 14:40:16;;;;;;;9.30;4.78;;;;;;;;;;10358107;28;20026;-56
2022/05/10 14:45:24;;;;;;;8.63;4.82;;;;;;;;;;10357496;28;20375;-58
2022/05/10 14:50:37;;;;;;;9.30;5.00;;;;;;;;;;10360993;28;20124;-54
2022/05/10 14:55:37;;;;;;;7.70;4.75;;;;;;;;;;10351468;28;20049;-58
2022/05/10 15:00:41;;;;;;;13.05;4.55;;;;;;;;;;10346529;28;20117;-58
2022/05/10 15:05:43;;;;;;;9.07;4.97;;;;;;;;;;10370065;28;20037;-53
2022/05/10 15:10:50;;;;;;;8.65;4.57;;;;;;;;;;10350409;28;20030;-57
2022/05/10 15:15:56;;;;;;;6.68;4.10;;;;;;;;;;10355826;28;20042;-58
2022/05/10 15:20:56;;;;;;;9.15;4.57;;;;;;;;;;10367901;28;20108;-59
2022/05/10 15:25:57;;;;;;;5.45;4.43;;;;;;;;;;10342174;28;20077;-56
2022/05/10 15:30:57;;;;;;;9.27;4.70;;;;;;;;;;10362830;28;20573;-55
2022/05/10 15:35:58;;;;;;;11.25;4.82;;;;;;;;;;10372926;28;20040;-58
2022/05/10 15:40:59;;;;;;;18.25;4.85;;;;;;;;;;10361069;28;20049;-55
2022/05/10 15:46:01;;;;;;;11.68;4.85;;;;;;;;;;10387512;28;20037;-58
2022/05/10 15:51:03;;;;;;;10.77;4.22;;;;;;;;;;10393643;28;20530;-56
2022/05/10 15:56:07;;;;;;;9.27;4.53;;;;;;;;;;10388421;28;20038;-58
2022/05/10 16:01:08;;;;;;;10.90;4.78;;;;;;;;;;10392018;28;20511;-53
2022/05/10 16:06:10;;;;;;;12.93;5.00;;;;;;;;;;10387102;28;20032;-58
2022/05/10 16:11:10;;;;;;;9.93;4.03;;;;;;;;;;10384573;28;20133;-57
2022/05/10 16:16:18;;;;;;;11.02;4.57;;;;;;;;;;10384192;28;20034;-57
2022/05/10 16:21:18;;;;;;;8.45;4.38;;;;;;;;;;10383447;28;20426;-49
2022/05/10 16:31:39;;;;;;;10.63;4.40;;;;;;;;;;10394741;28;20033;-48
2022/05/10 16:36:40;;;;;;;10.80;4.35;;;;;;;;;;10372178;28;20032;-48
2022/05/10 16:41:40;;;;;;;10.20;4.78;;;;;;;;;;10364617;28;20029;-48
2022/05/10 16:46:41;;;;;;;8.55;3.70;;;;;;;;;;10365877;28;20048;-51
2022/05/10 16:51:42;;;;;;;11.50;3.90;;;;;;;;;;10365923;28;20194;-55
2022/05/10 16:56:45;;;;;;;8.98;4.03;;;;;;;;;;10357940;28;20038;-55
2022/05/10 17:01:46;;;;;;;13.43;4.20;;;;;;;;;;10353720;28;20033;-54
2022/05/10 17:06:47;;;;;;;12.20;4.75;;;;;;;;;;10360829;28;20029;-51
2022/05/10 17:11:48;;;;;;;10.20;3.80;;;;;;;;;;10369916;28;20022;-53
2022/05/10 17:16:49;;;;;;;5.45;3.63;;;;;;;;;;10366696;28;20078;-54
2022/05/10 17:21:50;;;;;;;6.30;4.05;;;;;;;;;;10364741;28;20030;-51
2022/05/10 17:26:51;;;;;;;5.68;4.18;;;;;;;;;;10368154;28;20041;-55
2022/05/10 17:31:51;;;;;;;6.88;3.70;;;;;;;;;;10357644;28;20355;-51
2022/05/10 17:36:52;;;;;;;9.70;4.05;;;;;;;;;;10355321;28;20030;-54
2022/05/10 17:41:52;;;;;;;6.70;3.80;;;;;;;;;;10356349;28;20026;-55
2022/05/10 17:46:53;;;;;;;7.45;4.03;;;;;;;;;;10367154;28;20034;-49
2022/05/10 17:51:54;;;;;;;6.05;3.97;;;;;;;;;;10353569;28;20580;-50
2022/05/10 17:56:56;;;;;;;8.48;3.67;;;;;;;;;;10345490;28;20030;-49
2022/05/10 18:01:57;;;;;;;12.73;3.72;;;;;;;;;;10345433;28;20034;-55
2022/05/10 18:06:57;;;;;;;12.93;4.03;;;;;;;;;;10352439;28;20034;-54
2022/05/10 18:11:58;;;;;;;10.68;3.95;;;;;;;;;;10363543;28;20084;-55
2022/05/10 18:16:59;;;;;;;8.35;3.40;;;;;;;;;;10372827;28;20053;-50
2022/05/10 18:21:59;;;;;;;5.22;3.60;;;;;;;;;;10372240;28;20109;-51
2022/05/10 18:27:05;;;;;;;9.00;3.78;;;;;;;;;;10344646;28;20263;-49
2022/05/10 18:32:10;;;;;;;7.05;3.40;;;;;;;;;;10330344;28;20038;-49
2022/05/10 18:37:10;;;;;;;8.35;3.55;;;;;;;;;;10349091;28;20030;-52
2022/05/10 18:42:11;;;;;;;6.47;3.20;;;;;;;;;;10355387;28;20022;-51
2022/05/10 18:47:12;;;;;;;10.27;3.70;;;;;;;;;;10331879;28;20041;-53
2022/05/10 18:52:13;;;;;;;5.82;3.53;;;;;;;;;;10357816;28;20029;-49
2022/05/10 18:57:14;;;;;;;7.97;3.72;;;;;;;;;;10370157;28;20022;-49
2022/05/10 19:02:15;;;;;;;5.57;2.97;;;;;;;;;;10370941;28;20113;-52
2022/05/10 19:07:15;;;;;;;6.47;3.30;;;;;;;;;;10342885;28;20050;-50
2022/05/10 19:12:16;;;;;;;6.97;3.75;;;;;;;;;;10349030;28;20097;-52
2022/05/10 19:17:17;;;;;;;5.32;3.15;;;;;;;;;;10370464;28;20105;-50
2022/05/10 19:22:18;;;;;;;6.85;3.67;;;;;;;;;;10368548;28;20053;-53
2022/05/10 19:27:19;;;;;;;7.72;3.58;;;;;;;;;;10370354;28;20022;-52
2022/05/10 19:32:20;;;;;;;6.25;3.78;;;;;;;;;;10369987;28;20042;-51
2022/05/10 19:37:20;;;;;;;6.32;3.58;;;;;;;;;;10369433;28;20460;-49
2022/05/10 19:42:21;;;;;;;7.90;3.38;;;;;;;;;;10369405;28;20044;-49
2022/05/10 19:47:21;;;;;;;3.88;3.20;;;;;;;;;;10369448;28;20033;-52
2022/05/10 19:52:22;;;;;;;6.65;3.35;;;;;;;;;;10369120;28;20060;-49
2022/05/10 19:57:23;;;;;;;7.70;3.63;;;;;;;;;;10369105;28;20030;-54
2022/05/10 20:07:42;;;;;;;8.52;3.60;;;;;;;;;;10367446;28;20481;-52
2022/05/10 20:12:43;;;;;;;6.82;3.20;;;;;;;;;;10368901;28;20026;-52
2022/05/10 20:17:48;;;;;;;7.10;3.75;;;;;;;;;;10367608;28;20034;-53
2022/05/10 20:22:52;;;;;;;8.10;3.35;;;;;;;;;;10368021;28;20398;-50
2022/05/10 20:27:53;;;;;;;6.75;3.25;;;;;;;;;;10367725;28;20029;-55
2022/05/10 20:32:55;;;;;;;5.50;3.13;;;;;;;;;;10367297;28;20030;-54
2022/05/10 20:37:55;;;;;;;10.93;3.60;;;;;;;;;;10357395;28;20466;-55
2022/05/10 20:42:59;;;;;;;13.75;3.55;;;;;;;;;;10326272;28;20032;-55
2022/05/10 20:48:01;;;;;;;6.78;3.55;;;;;;;;;;10363657;28;20033;-55
2022/05/10 20:53:03;;;;;;;12.07;3.63;;;;;;;;;;10367568;28;20123;-52
2022/05/10 20:58:05;;;;;;;12.35;3.78;;;;;;;;;;10367110;28;20751;-55
2022/05/10 21:03:05;;;;;;;12.93;4.28;;;;;;;;;;10367323;28;20367;-50
2022/05/10 21:13:27;;;;;;;18.73;4.57;;;;;;;;;;10371430;28;20454;-54
2022/05/10 21:18:27;;;;;;;12.60;4.03;;;;;;;;;;10388564;28;20049;-53
2022/05/10 21:23:28;;;;;;;14.95;3.72;;;;;;;;;;10355639;28;20072;-49
2022/05/10 21:28:29;;;;;;;12.23;4.15;;;;;;;;;;10371923;28;20508;-50
2022/05/10 21:33:29;;;;;;;8.73;4.30;;;;;;;;;;10384748;28;20045;-53
2022/05/10 21:38:30;;;;;;;10.23;4.13;;;;;;;;;;10378634;28;20053;-53
2022/05/10 21:43:31;;;;;;;9.35;3.97;;;;;;;;;;10378284;28;20034;-51
2022/05/10 21:48:32;;;;;;;11.70;4.10;;;;;;;;;;10359113;28;20093;-52
2022/05/10 21:53:32;;;;;;;6.95;3.95;;;;;;;;;;10367296;28;20049;-49
2022/05/10 21:58:33;;;;;;;10.63;4.60;;;;;;;;;;10380755;28;20030;-55
2022/05/10 22:03:34;;;;;;;10.82;4.50;;;;;;;;;;10374343;28;20038;-55
2022/05/10 22:08:37;;;;;;;14.65;4.43;;;;;;;;;;10379196;28;20033;-55
2022/05/10 22:13:38;;;;;;;17.48;4.45;;;;;;;;;;10370764;28;20018;-54
2022/05/10 22:18:39;;;;;;;15.10;4.18;;;;;;;;;;10370488;28;20050;-54
2022/05/10 22:23:40;;;;;;;15.50;4.75;;;;;;;;;;10372119;28;20036;-55
2022/05/10 22:28:40;;;;;;;10.18;5.00;;;;;;;;;;10370235;28;20033;-57
2022/05/10 22:33:41;;;;;;;12.30;4.10;;;;;;;;;;10369754;28;20034;-57
2022/05/10 22:38:42;;;;;;;13.23;4.45;;;;;;;;;;10371570;28;20030;-59
2022/05/10 22:43:43;;;;;;;8.20;3.95;;;;;;;;;;10371709;28;20042;-58
2022/05/10 22:48:45;;;;;;;16.52;4.00;;;;;;;;;;10375398;28;20025;-58
2022/05/10 22:53:46;;;;;;;9.15;4.28;;;;;;;;;;10381656;28;20028;-58
2022/05/10 22:58:46;;;;;;;8.25;3.67;;;;;;;;;;10398281;28;20037;-58
2022/05/10 23:03:48;;;;;;;18.58;4.18;;;;;;;;;;10399164;28;20033;-57
2022/05/10 23:08:48;;;;;;;7.85;3.35;;;;;;;;;;10391385;28;20030;-58
2022/05/10 23:13:49;;;;;;;11.55;3.75;;;;;;;;;;10368079;28;20022;-58
2022/05/10 23:18:50;;;;;;;9.65;3.83;;;;;;;;;;10370231;28;20064;-58
2022/05/10 23:23:50;;;;;;;11.18;3.35;;;;;;;;;;10370442;28;20185;-58
2022/05/10 23:28:51;;;;;;;8.65;3.50;;;;;;;;;;10370042;28;20048;-57
2022/05/10 23:33:51;;;;;;;7.10;3.25;;;;;;;;;;10369697;28;20161;-58
2022/05/10 23:38:59;;;;;;;11.27;4.30;;;;;;;;;;10369485;28;20018;-55
2022/05/10 23:44:10;;;;;;;16.25;3.90;;;;;;;;;;10369244;28;20359;-56
2022/05/10 23:49:12;;;;;;;8.25;3.92;;;;;;;;;;10369551;28;20033;-57
2022/05/10 23:54:14;;;;;;;13.18;3.97;;;;;;;;;;10369335;28;20080;-55
2022/05/10 23:59:17;;;;;;;11.43;3.60;;;;;;;;;;10369157;28;20026;-57
